sensor_id;sensor_type;location;lat;lon;timestamp;temperature;humidity
21275;DHT22;36472;52.170;20.884;2022-08-19T00:02:03;34.50;54.20
21275;DHT22;36472;52.170;20.884;2022-08-19T00:04:34;34.40;54.90
21275;DHT22;36472;52.170;20.884;2022-08-19T00:07:04;34.40;54.40
21275;DHT22;36472;52.170;20.884;2022-08-19T00:09:34;34.30;54.40
21275;DHT22;36472;52.170;20.884;2022-08-19T00:12:04;34.30;54.60
21275;DHT22;36472;52.170;20.884;2022-08-19T00:14:33;34.20;54.70
21275;DHT22;36472;52.170;20.884;2022-08-19T00:17:03;34.20;54.90
21275;DHT22;36472;52.170;20.884;2022-08-19T00:19:34;34.10;55.00
21275;DHT22;36472;52.170;20.884;2022-08-19T00:22:04;34.00;55.00
21275;DHT22;36472;52.170;20.884;2022-08-19T00:24:33;34.00;55.10
21275;DHT22;36472;52.170;20.884;2022-08-19T00:27:07;34.00;55.20
21275;DHT22;36472;52.170;20.884;2022-08-19T00:29:51;33.90;55.30
21275;DHT22;36472;52.170;20.884;2022-08-19T00:32:20;33.90;55.40
21275;DHT22;36472;52.170;20.884;2022-08-19T00:34:50;33.90;55.50
21275;DHT22;36472;52.170;20.884;2022-08-19T00:37:21;33.90;55.40
21275;DHT22;36472;52.170;20.884;2022-08-19T00:39:51;33.80;55.40
21275;DHT22;36472;52.170;20.884;2022-08-19T00:42:22;33.80;55.50
21275;DHT22;36472;52.170;20.884;2022-08-19T00:44:53;33.80;55.50
21275;DHT22;36472;52.170;20.884;2022-08-19T00:47:22;33.70;55.50
21275;DHT22;36472;52.170;20.884;2022-08-19T00:49:55;33.70;55.70
21275;DHT22;36472;52.170;20.884;2022-08-19T00:52:29;33.70;55.80
21275;DHT22;36472;52.170;20.884;2022-08-19T00:55:02;33.70;55.90
21275;DHT22;36472;52.170;20.884;2022-08-19T00:57:39;33.70;55.90
21275;DHT22;36472;52.170;20.884;2022-08-19T01:00:15;33.60;55.80
21275;DHT22;36472;52.170;20.884;2022-08-19T01:02:46;33.60;55.90
21275;DHT22;36472;52.170;20.884;2022-08-19T01:05:18;33.60;56.60
21275;DHT22;36472;52.170;20.884;2022-08-19T01:07:51;33.60;56.00
21275;DHT22;36472;52.170;20.884;2022-08-19T01:10:25;33.60;56.00
21275;DHT22;36472;52.170;20.884;2022-08-19T01:13:02;33.60;55.90
21275;DHT22;36472;52.170;20.884;2022-08-19T01:15:40;33.70;56.00
21275;DHT22;36472;52.170;20.884;2022-08-19T01:18:13;33.70;55.70
21275;DHT22;36472;52.170;20.884;2022-08-19T01:20:45;33.70;55.80
21275;DHT22;36472;52.170;20.884;2022-08-19T01:23:16;33.70;55.80
21275;DHT22;36472;52.170;20.884;2022-08-19T01:25:48;33.70;55.70
21275;DHT22;36472;52.170;20.884;2022-08-19T01:28:22;33.70;55.70
21275;DHT22;36472;52.170;20.884;2022-08-19T01:31:05;33.60;55.70
21275;DHT22;36472;52.170;20.884;2022-08-19T01:33:34;33.60;55.90
21275;DHT22;36472;52.170;20.884;2022-08-19T01:36:05;33.50;55.80
21275;DHT22;36472;52.170;20.884;2022-08-19T01:38:39;33.40;55.80
21275;DHT22;36472;52.170;20.884;2022-08-19T01:41:11;33.40;55.90
21275;DHT22;36472;52.170;20.884;2022-08-19T01:43:40;33.30;56.00
21275;DHT22;36472;52.170;20.884;2022-08-19T01:46:29;33.30;56.10
21275;DHT22;36472;52.170;20.884;2022-08-19T01:48:59;33.20;56.20
21275;DHT22;36472;52.170;20.884;2022-08-19T01:51:28;33.20;56.30
21275;DHT22;36472;52.170;20.884;2022-08-19T01:54:08;33.20;56.40
21275;DHT22;36472;52.170;20.884;2022-08-19T01:56:37;33.10;56.40
21275;DHT22;36472;52.170;20.884;2022-08-19T01:59:10;33.10;56.50
21275;DHT22;36472;52.170;20.884;2022-08-19T02:01:43;33.10;56.60
21275;DHT22;36472;52.170;20.884;2022-08-19T02:04:11;33.10;56.70
21275;DHT22;36472;52.170;20.884;2022-08-19T02:06:41;33.10;56.70
21275;DHT22;36472;52.170;20.884;2022-08-19T02:09:11;33.00;56.60
21275;DHT22;36472;52.170;20.884;2022-08-19T02:11:41;33.00;56.70
21275;DHT22;36472;52.170;20.884;2022-08-19T02:14:10;33.10;56.70
21275;DHT22;36472;52.170;20.884;2022-08-19T02:16:39;33.00;56.60
21275;DHT22;36472;52.170;20.884;2022-08-19T02:19:07;33.10;56.70
21275;DHT22;36472;52.170;20.884;2022-08-19T02:21:37;33.10;56.60
21275;DHT22;36472;52.170;20.884;2022-08-19T02:24:06;33.10;56.70
21275;DHT22;36472;52.170;20.884;2022-08-19T02:26:36;33.10;56.60
21275;DHT22;36472;52.170;20.884;2022-08-19T02:29:07;33.10;56.60
21275;DHT22;36472;52.170;20.884;2022-08-19T02:31:36;33.10;56.60
21275;DHT22;36472;52.170;20.884;2022-08-19T02:34:05;33.10;56.50
21275;DHT22;36472;52.170;20.884;2022-08-19T02:36:33;33.10;56.50
21275;DHT22;36472;52.170;20.884;2022-08-19T02:39:09;33.20;56.50
21275;DHT22;36472;52.170;20.884;2022-08-19T02:41:38;33.20;56.50
21275;DHT22;36472;52.170;20.884;2022-08-19T02:44:06;33.20;56.40
21275;DHT22;36472;52.170;20.884;2022-08-19T02:46:56;33.20;56.50
21275;DHT22;36472;52.170;20.884;2022-08-19T02:49:24;33.20;56.40
21275;DHT22;36472;52.170;20.884;2022-08-19T02:51:53;33.20;56.50
21275;DHT22;36472;52.170;20.884;2022-08-19T02:54:22;33.20;56.50
21275;DHT22;36472;52.170;20.884;2022-08-19T02:56:52;33.20;56.40
21275;DHT22;36472;52.170;20.884;2022-08-19T02:59:21;33.20;56.40
21275;DHT22;36472;52.170;20.884;2022-08-19T03:01:49;33.20;56.40
21275;DHT22;36472;52.170;20.884;2022-08-19T03:04:19;33.20;56.40
21275;DHT22;36472;52.170;20.884;2022-08-19T03:06:48;33.20;56.50
21275;DHT22;36472;52.170;20.884;2022-08-19T03:09:19;33.20;56.40
21275;DHT22;36472;52.170;20.884;2022-08-19T03:11:48;33.20;56.40
21275;DHT22;36472;52.170;20.884;2022-08-19T03:14:20;33.20;56.50
21275;DHT22;36472;52.170;20.884;2022-08-19T03:16:51;33.20;57.20
21275;DHT22;36472;52.170;20.884;2022-08-19T03:19:21;33.20;56.50
21275;DHT22;36472;52.170;20.884;2022-08-19T03:21:49;33.10;56.40
21275;DHT22;36472;52.170;20.884;2022-08-19T03:24:20;33.10;56.40
21275;DHT22;36472;52.170;20.884;2022-08-19T03:26:51;33.10;56.50
21275;DHT22;36472;52.170;20.884;2022-08-19T03:29:27;33.10;56.50
21275;DHT22;36472;52.170;20.884;2022-08-19T03:31:58;33.10;56.60
21275;DHT22;36472;52.170;20.884;2022-08-19T03:34:32;33.00;56.40
21275;DHT22;36472;52.170;20.884;2022-08-19T03:37:04;33.00;56.40
21275;DHT22;36472;52.170;20.884;2022-08-19T03:39:36;33.00;56.60
21275;DHT22;36472;52.170;20.884;2022-08-19T03:42:06;33.00;56.50
21275;DHT22;36472;52.170;20.884;2022-08-19T03:44:56;33.00;56.50
21275;DHT22;36472;52.170;20.884;2022-08-19T03:47:25;33.00;56.60
21275;DHT22;36472;52.170;20.884;2022-08-19T03:49:54;33.00;56.50
21275;DHT22;36472;52.170;20.884;2022-08-19T03:52:23;33.00;56.40
21275;DHT22;36472;52.170;20.884;2022-08-19T03:54:51;33.00;56.40
21275;DHT22;36472;52.170;20.884;2022-08-19T03:57:20;33.10;56.50
21275;DHT22;36472;52.170;20.884;2022-08-19T03:59:59;33.10;56.50
21275;DHT22;36472;52.170;20.884;2022-08-19T04:02:39;33.10;56.50
21275;DHT22;36472;52.170;20.884;2022-08-19T04:05:25;33.20;56.50
21275;DHT22;36472;52.170;20.884;2022-08-19T04:07:55;33.20;56.50
21275;DHT22;36472;52.170;20.884;2022-08-19T04:10:26;33.20;56.60
21275;DHT22;36472;52.170;20.884;2022-08-19T04:12:55;33.20;56.50
21275;DHT22;36472;52.170;20.884;2022-08-19T04:15:25;33.20;56.50
21275;DHT22;36472;52.170;20.884;2022-08-19T04:17:56;33.30;56.50
21275;DHT22;36472;52.170;20.884;2022-08-19T04:20:24;33.30;56.50
21275;DHT22;36472;52.170;20.884;2022-08-19T04:22:53;33.30;56.30
21275;DHT22;36472;52.170;20.884;2022-08-19T04:25:22;33.40;56.30
21275;DHT22;36472;52.170;20.884;2022-08-19T04:27:50;33.40;56.20
21275;DHT22;36472;52.170;20.884;2022-08-19T04:30:19;33.40;56.10
21275;DHT22;36472;52.170;20.884;2022-08-19T04:32:51;33.50;56.30
21275;DHT22;36472;52.170;20.884;2022-08-19T04:35:19;33.50;56.20
21275;DHT22;36472;52.170;20.884;2022-08-19T04:37:51;33.50;56.10
21275;DHT22;36472;52.170;20.884;2022-08-19T04:40:19;33.60;56.30
21275;DHT22;36472;52.170;20.884;2022-08-19T04:43:08;33.60;56.00
21275;DHT22;36472;52.170;20.884;2022-08-19T04:45:43;33.70;56.10
21275;DHT22;36472;52.170;20.884;2022-08-19T04:48:13;33.70;55.80
21275;DHT22;36472;52.170;20.884;2022-08-19T04:50:54;33.80;56.00
21275;DHT22;36472;52.170;20.884;2022-08-19T04:53:26;33.80;55.50
21275;DHT22;36472;52.170;20.884;2022-08-19T04:56:07;33.80;55.60
21275;DHT22;36472;52.170;20.884;2022-08-19T04:58:41;33.80;55.40
21275;DHT22;36472;52.170;20.884;2022-08-19T05:01:13;33.80;55.50
21275;DHT22;36472;52.170;20.884;2022-08-19T05:03:44;33.80;55.30
21275;DHT22;36472;52.170;20.884;2022-08-19T05:06:15;33.80;55.60
21275;DHT22;36472;52.170;20.884;2022-08-19T05:08:45;33.90;55.60
21275;DHT22;36472;52.170;20.884;2022-08-19T05:11:18;33.90;55.40
21275;DHT22;36472;52.170;20.884;2022-08-19T05:13:52;33.90;55.30
21275;DHT22;36472;52.170;20.884;2022-08-19T05:16:23;33.90;55.30
21275;DHT22;36472;52.170;20.884;2022-08-19T05:18:55;34.00;55.40
21275;DHT22;36472;52.170;20.884;2022-08-19T05:21:42;33.90;55.30
21275;DHT22;36472;52.170;20.884;2022-08-19T05:24:30;33.90;55.60
21275;DHT22;36472;52.170;20.884;2022-08-19T05:27:01;34.00;55.40
21275;DHT22;36472;52.170;20.884;2022-08-19T05:29:33;34.00;55.40
21275;DHT22;36472;52.170;20.884;2022-08-19T05:32:04;34.00;55.40
21275;DHT22;36472;52.170;20.884;2022-08-19T05:34:37;34.00;55.40
21275;DHT22;36472;52.170;20.884;2022-08-19T05:37:07;34.00;55.90
21275;DHT22;36472;52.170;20.884;2022-08-19T05:39:37;33.90;55.50
21275;DHT22;36472;52.170;20.884;2022-08-19T05:42:09;33.90;55.60
21275;DHT22;36472;52.170;20.884;2022-08-19T05:44:41;33.90;55.70
21275;DHT22;36472;52.170;20.884;2022-08-19T05:47:13;34.00;55.50
21275;DHT22;36472;52.170;20.884;2022-08-19T05:49:43;34.00;55.60
21275;DHT22;36472;52.170;20.884;2022-08-19T05:52:14;34.00;55.50
21275;DHT22;36472;52.170;20.884;2022-08-19T05:54:46;34.00;55.30
21275;DHT22;36472;52.170;20.884;2022-08-19T05:57:18;33.90;55.50
21275;DHT22;36472;52.170;20.884;2022-08-19T05:59:48;33.90;55.60
21275;DHT22;36472;52.170;20.884;2022-08-19T06:02:19;33.90;55.90
21275;DHT22;36472;52.170;20.884;2022-08-19T06:04:49;33.90;56.10
21275;DHT22;36472;52.170;20.884;2022-08-19T06:07:18;34.00;55.50
21275;DHT22;36472;52.170;20.884;2022-08-19T06:09:47;34.10;56.00
21275;DHT22;36472;52.170;20.884;2022-08-19T06:12:28;34.10;55.50
21275;DHT22;36472;52.170;20.884;2022-08-19T06:15:01;34.20;55.30
21275;DHT22;36472;52.170;20.884;2022-08-19T06:17:32;34.30;55.10
21275;DHT22;36472;52.170;20.884;2022-08-19T06:20:04;34.40;54.90
21275;DHT22;36472;52.170;20.884;2022-08-19T06:22:37;34.50;55.10
21275;DHT22;36472;52.170;20.884;2022-08-19T06:25:07;34.60;55.00
21275;DHT22;36472;52.170;20.884;2022-08-19T06:27:37;34.70;54.70
21275;DHT22;36472;52.170;20.884;2022-08-19T06:30:26;34.70;54.20
21275;DHT22;36472;52.170;20.884;2022-08-19T06:32:55;34.90;54.60
21275;DHT22;36472;52.170;20.884;2022-08-19T06:35:25;34.90;54.10
21275;DHT22;36472;52.170;20.884;2022-08-19T06:37:56;35.00;54.20
21275;DHT22;36472;52.170;20.884;2022-08-19T06:40:25;35.10;54.10
21275;DHT22;36472;52.170;20.884;2022-08-19T06:42:54;35.10;53.80
21275;DHT22;36472;52.170;20.884;2022-08-19T06:45:24;35.20;54.00
21275;DHT22;36472;52.170;20.884;2022-08-19T06:48:02;35.30;53.70
21275;DHT22;36472;52.170;20.884;2022-08-19T06:50:32;35.30;53.80
21275;DHT22;36472;52.170;20.884;2022-08-19T06:53:05;35.40;53.80
21275;DHT22;36472;52.170;20.884;2022-08-19T06:55:34;35.40;54.10
21275;DHT22;36472;52.170;20.884;2022-08-19T06:58:02;35.40;53.50
21275;DHT22;36472;52.170;20.884;2022-08-19T07:00:33;35.50;53.70
21275;DHT22;36472;52.170;20.884;2022-08-19T07:03:01;35.60;53.30
21275;DHT22;36472;52.170;20.884;2022-08-19T07:05:40;35.80;53.00
21275;DHT22;36472;52.170;20.884;2022-08-19T07:08:12;36.10;52.50
21275;DHT22;36472;52.170;20.884;2022-08-19T07:10:45;36.40;52.10
21275;DHT22;36472;52.170;20.884;2022-08-19T07:13:15;36.70;51.60
21275;DHT22;36472;52.170;20.884;2022-08-19T07:15:43;37.00;51.10
21275;DHT22;36472;52.170;20.884;2022-08-19T07:18:14;37.10;50.70
21275;DHT22;36472;52.170;20.884;2022-08-19T07:20:44;37.20;50.50
21275;DHT22;36472;52.170;20.884;2022-08-19T07:23:13;37.30;50.20
21275;DHT22;36472;52.170;20.884;2022-08-19T07:25:42;37.50;50.30
21275;DHT22;36472;52.170;20.884;2022-08-19T07:28:19;37.60;50.70
21275;DHT22;36472;52.170;20.884;2022-08-19T07:30:51;37.70;49.70
21275;DHT22;36472;52.170;20.884;2022-08-19T07:33:21;37.80;50.10
21275;DHT22;36472;52.170;20.884;2022-08-19T07:35:55;37.90;50.10
21275;DHT22;36472;52.170;20.884;2022-08-19T07:38:24;38.10;49.30
21275;DHT22;36472;52.170;20.884;2022-08-19T07:40:53;38.40;48.70
21275;DHT22;36472;52.170;20.884;2022-08-19T07:43:22;38.80;48.60
21275;DHT22;36472;52.170;20.884;2022-08-19T07:46:01;39.20;47.80
21275;DHT22;36472;52.170;20.884;2022-08-19T07:48:30;39.80;46.90
21275;DHT22;36472;52.170;20.884;2022-08-19T07:51:04;40.30;46.00
21275;DHT22;36472;52.170;20.884;2022-08-19T07:53:36;40.80;45.30
21275;DHT22;36472;52.170;20.884;2022-08-19T07:56:06;41.10;44.70
21275;DHT22;36472;52.170;20.884;2022-08-19T07:58:38;41.20;44.40
21275;DHT22;36472;52.170;20.884;2022-08-19T08:01:11;41.30;44.50
21275;DHT22;36472;52.170;20.884;2022-08-19T08:03:41;41.40;44.20
21275;DHT22;36472;52.170;20.884;2022-08-19T08:06:29;41.40;44.00
21275;DHT22;36472;52.170;20.884;2022-08-19T08:09:18;41.40;44.40
21275;DHT22;36472;52.170;20.884;2022-08-19T08:11:54;41.50;44.00
21275;DHT22;36472;52.170;20.884;2022-08-19T08:14:33;41.60;44.70
21275;DHT22;36472;52.170;20.884;2022-08-19T08:17:10;41.80;43.60
21275;DHT22;36472;52.170;20.884;2022-08-19T08:19:41;42.00;43.90
21275;DHT22;36472;52.170;20.884;2022-08-19T08:22:15;42.30;43.30
21275;DHT22;36472;52.170;20.884;2022-08-19T08:25:03;42.60;43.00
21275;DHT22;36472;52.170;20.884;2022-08-19T08:27:35;43.00;42.40
21275;DHT22;36472;52.170;20.884;2022-08-19T08:30:08;43.30;41.80
21275;DHT22;36472;52.170;20.884;2022-08-19T08:32:39;43.50;41.90
21275;DHT22;36472;52.170;20.884;2022-08-19T08:35:12;43.70;41.40
21275;DHT22;36472;52.170;20.884;2022-08-19T08:37:46;43.80;41.80
21275;DHT22;36472;52.170;20.884;2022-08-19T08:40:20;43.90;41.20
21275;DHT22;36472;52.170;20.884;2022-08-19T08:43:06;44.10;41.30
21275;DHT22;36472;52.170;20.884;2022-08-19T08:45:43;44.30;41.00
21275;DHT22;36472;52.170;20.884;2022-08-19T08:48:24;44.50;41.70
21275;DHT22;36472;52.170;20.884;2022-08-19T08:51:03;44.80;40.40
21275;DHT22;36472;52.170;20.884;2022-08-19T08:53:38;44.90;40.50
21275;DHT22;36472;52.170;20.884;2022-08-19T08:56:09;45.10;39.80
21275;DHT22;36472;52.170;20.884;2022-08-19T08:58:50;45.20;39.90
21275;DHT22;36472;52.170;20.884;2022-08-19T09:01:27;45.40;40.20
21275;DHT22;36472;52.170;20.884;2022-08-19T09:03:57;45.60;39.70
21275;DHT22;36472;52.170;20.884;2022-08-19T09:06:34;45.80;39.70
21275;DHT22;36472;52.170;20.884;2022-08-19T09:09:14;46.00;39.10
21275;DHT22;36472;52.170;20.884;2022-08-19T09:11:56;46.30;37.80
21275;DHT22;36472;52.170;20.884;2022-08-19T09:14:37;46.60;37.30
21275;DHT22;36472;52.170;20.884;2022-08-19T09:17:19;46.70;36.50
21275;DHT22;36472;52.170;20.884;2022-08-19T09:19:57;46.80;35.90
21275;DHT22;36472;52.170;20.884;2022-08-19T09:22:29;46.90;36.00
21275;DHT22;36472;52.170;20.884;2022-08-19T09:25:00;46.90;36.30
21275;DHT22;36472;52.170;20.884;2022-08-19T09:27:30;46.80;36.10
21275;DHT22;36472;52.170;20.884;2022-08-19T09:30:22;46.70;36.00
21275;DHT22;36472;52.170;20.884;2022-08-19T09:32:54;46.70;36.40
21275;DHT22;36472;52.170;20.884;2022-08-19T09:35:26;46.60;36.30
21275;DHT22;36472;52.170;20.884;2022-08-19T09:37:58;46.60;37.00
21275;DHT22;36472;52.170;20.884;2022-08-19T09:40:30;46.60;36.40
21275;DHT22;36472;52.170;20.884;2022-08-19T09:43:04;46.50;35.90
21275;DHT22;36472;52.170;20.884;2022-08-19T09:45:37;46.50;36.40
21275;DHT22;36472;52.170;20.884;2022-08-19T09:48:06;46.60;36.30
21275;DHT22;36472;52.170;20.884;2022-08-19T09:50:37;46.60;36.30
21275;DHT22;36472;52.170;20.884;2022-08-19T09:53:19;46.70;36.50
21275;DHT22;36472;52.170;20.884;2022-08-19T09:55:54;46.80;36.60
21275;DHT22;36472;52.170;20.884;2022-08-19T09:58:24;46.90;36.00
21275;DHT22;36472;52.170;20.884;2022-08-19T10:00:55;47.00;36.50
21275;DHT22;36472;52.170;20.884;2022-08-19T10:03:25;47.10;35.40
21275;DHT22;36472;52.170;20.884;2022-08-19T10:05:57;47.10;35.00
21275;DHT22;36472;52.170;20.884;2022-08-19T10:08:29;47.10;35.50
21275;DHT22;36472;52.170;20.884;2022-08-19T10:11:02;47.10;35.30
21275;DHT22;36472;52.170;20.884;2022-08-19T10:13:52;47.20;35.50
21275;DHT22;36472;52.170;20.884;2022-08-19T10:16:23;47.40;34.80
21275;DHT22;36472;52.170;20.884;2022-08-19T10:18:57;47.50;35.00
21275;DHT22;36472;52.170;20.884;2022-08-19T10:21:32;47.60;34.70
21275;DHT22;36472;52.170;20.884;2022-08-19T10:24:04;47.50;34.10
21275;DHT22;36472;52.170;20.884;2022-08-19T10:26:39;47.40;35.00
21275;DHT22;36472;52.170;20.884;2022-08-19T10:29:13;47.20;34.90
21275;DHT22;36472;52.170;20.884;2022-08-19T10:31:59;47.10;34.80
21275;DHT22;36472;52.170;20.884;2022-08-19T10:34:30;46.90;35.10
21275;DHT22;36472;52.170;20.884;2022-08-19T10:37:00;46.70;35.60
21275;DHT22;36472;52.170;20.884;2022-08-19T10:39:30;46.40;36.00
21275;DHT22;36472;52.170;20.884;2022-08-19T10:42:11;46.00;35.40
21275;DHT22;36472;52.170;20.884;2022-08-19T10:44:41;45.70;36.40
21275;DHT22;36472;52.170;20.884;2022-08-19T10:47:10;45.40;36.90
21275;DHT22;36472;52.170;20.884;2022-08-19T10:49:52;45.10;37.50
21275;DHT22;36472;52.170;20.884;2022-08-19T10:52:39;44.90;38.10
21275;DHT22;36472;52.170;20.884;2022-08-19T10:55:19;44.70;37.10
21275;DHT22;36472;52.170;20.884;2022-08-19T10:58:12;44.40;38.20
21275;DHT22;36472;52.170;20.884;2022-08-19T11:00:43;44.20;38.40
21275;DHT22;36472;52.170;20.884;2022-08-19T11:03:18;44.20;38.70
21275;DHT22;36472;52.170;20.884;2022-08-19T11:05:57;44.10;38.70
21275;DHT22;36472;52.170;20.884;2022-08-19T11:08:26;44.00;37.90
21275;DHT22;36472;52.170;20.884;2022-08-19T11:10:59;43.90;38.30
21275;DHT22;36472;52.170;20.884;2022-08-19T11:13:33;43.90;38.10
21275;DHT22;36472;52.170;20.884;2022-08-19T11:16:06;43.80;38.10
21275;DHT22;36472;52.170;20.884;2022-08-19T11:18:40;43.60;38.40
21275;DHT22;36472;52.170;20.884;2022-08-19T11:21:14;43.40;38.90
21275;DHT22;36472;52.170;20.884;2022-08-19T11:23:48;43.20;38.10
21275;DHT22;36472;52.170;20.884;2022-08-19T11:26:19;43.20;38.40
21275;DHT22;36472;52.170;20.884;2022-08-19T11:28:51;43.10;38.70
21275;DHT22;36472;52.170;20.884;2022-08-19T11:31:25;43.10;39.40
21275;DHT22;36472;52.170;20.884;2022-08-19T11:33:56;43.00;39.60
21275;DHT22;36472;52.170;20.884;2022-08-19T11:36:27;42.90;39.80
21275;DHT22;36472;52.170;20.884;2022-08-19T11:38:56;42.90;39.30
21275;DHT22;36472;52.170;20.884;2022-08-19T11:41:25;42.80;39.60
21275;DHT22;36472;52.170;20.884;2022-08-19T11:43:56;42.70;40.00
21275;DHT22;36472;52.170;20.884;2022-08-19T11:46:26;42.60;40.30
21275;DHT22;36472;52.170;20.884;2022-08-19T11:48:56;42.50;40.80
21275;DHT22;36472;52.170;20.884;2022-08-19T11:51:27;42.30;40.80
21275;DHT22;36472;52.170;20.884;2022-08-19T11:53:57;42.20;40.80
21275;DHT22;36472;52.170;20.884;2022-08-19T11:56:27;42.00;41.60
21275;DHT22;36472;52.170;20.884;2022-08-19T11:58:58;41.90;40.80
21275;DHT22;36472;52.170;20.884;2022-08-19T12:01:30;41.80;40.70
21275;DHT22;36472;52.170;20.884;2022-08-19T12:03:59;41.70;41.50
21275;DHT22;36472;52.170;20.884;2022-08-19T12:06:32;41.50;41.70
21275;DHT22;36472;52.170;20.884;2022-08-19T12:09:04;41.50;42.30
21275;DHT22;36472;52.170;20.884;2022-08-19T12:11:36;41.40;42.20
21275;DHT22;36472;52.170;20.884;2022-08-19T12:14:09;41.30;42.90
21275;DHT22;36472;52.170;20.884;2022-08-19T12:16:44;41.30;43.00
21275;DHT22;36472;52.170;20.884;2022-08-19T12:19:18;41.30;42.20
21275;DHT22;36472;52.170;20.884;2022-08-19T12:21:49;41.20;42.60
21275;DHT22;36472;52.170;20.884;2022-08-19T12:24:20;41.10;42.10
21275;DHT22;36472;52.170;20.884;2022-08-19T12:26:50;41.10;42.70
21275;DHT22;36472;52.170;20.884;2022-08-19T12:29:22;41.00;43.10
21275;DHT22;36472;52.170;20.884;2022-08-19T12:31:56;40.90;42.40
21275;DHT22;36472;52.170;20.884;2022-08-19T12:34:31;40.80;42.20
21275;DHT22;36472;52.170;20.884;2022-08-19T12:37:03;40.80;42.60
21275;DHT22;36472;52.170;20.884;2022-08-19T12:39:38;40.70;42.30
21275;DHT22;36472;52.170;20.884;2022-08-19T12:42:10;40.60;42.10
21275;DHT22;36472;52.170;20.884;2022-08-19T12:44:42;40.50;42.20
21275;DHT22;36472;52.170;20.884;2022-08-19T12:47:12;40.60;42.10
21275;DHT22;36472;52.170;20.884;2022-08-19T12:49:42;40.60;42.20
21275;DHT22;36472;52.170;20.884;2022-08-19T12:52:23;40.60;43.00
21275;DHT22;36472;52.170;20.884;2022-08-19T12:54:54;40.50;42.90
21275;DHT22;36472;52.170;20.884;2022-08-19T12:57:27;40.60;43.40
21275;DHT22;36472;52.170;20.884;2022-08-19T13:00:05;40.70;43.90
21275;DHT22;36472;52.170;20.884;2022-08-19T13:02:38;40.70;42.50
21275;DHT22;36472;52.170;20.884;2022-08-19T13:05:11;40.60;43.10
21275;DHT22;36472;52.170;20.884;2022-08-19T13:07:43;40.50;42.50
21275;DHT22;36472;52.170;20.884;2022-08-19T13:10:14;40.60;42.80
21275;DHT22;36472;52.170;20.884;2022-08-19T13:12:46;40.50;43.10
21275;DHT22;36472;52.170;20.884;2022-08-19T13:15:19;40.40;43.20
21275;DHT22;36472;52.170;20.884;2022-08-19T13:17:52;40.40;43.80
21275;DHT22;36472;52.170;20.884;2022-08-19T13:20:24;40.40;43.10
21275;DHT22;36472;52.170;20.884;2022-08-19T13:22:54;40.50;43.30
21275;DHT22;36472;52.170;20.884;2022-08-19T13:25:24;40.50;43.10
21275;DHT22;36472;52.170;20.884;2022-08-19T13:27:53;40.40;42.70
21275;DHT22;36472;52.170;20.884;2022-08-19T13:30:24;40.40;43.00
21275;DHT22;36472;52.170;20.884;2022-08-19T13:33:11;40.40;42.90
21275;DHT22;36472;52.170;20.884;2022-08-19T13:35:45;40.50;42.90
21275;DHT22;36472;52.170;20.884;2022-08-19T13:38:17;40.60;42.90
21275;DHT22;36472;52.170;20.884;2022-08-19T13:40:50;40.60;43.20
21275;DHT22;36472;52.170;20.884;2022-08-19T13:43:22;40.60;43.00
21275;DHT22;36472;52.170;20.884;2022-08-19T13:45:55;40.60;42.80
21275;DHT22;36472;52.170;20.884;2022-08-19T13:48:25;40.50;42.70
21275;DHT22;36472;52.170;20.884;2022-08-19T13:50:54;40.50;42.70
21275;DHT22;36472;52.170;20.884;2022-08-19T13:53:23;40.50;42.50
21275;DHT22;36472;52.170;20.884;2022-08-19T13:55:52;40.50;42.90
21275;DHT22;36472;52.170;20.884;2022-08-19T13:58:21;40.50;42.40
21275;DHT22;36472;52.170;20.884;2022-08-19T14:00:50;40.70;42.70
21275;DHT22;36472;52.170;20.884;2022-08-19T14:03:21;40.80;42.70
21275;DHT22;36472;52.170;20.884;2022-08-19T14:05:50;40.80;42.30
21275;DHT22;36472;52.170;20.884;2022-08-19T14:08:19;40.90;42.20
21275;DHT22;36472;52.170;20.884;2022-08-19T14:10:48;41.00;42.70
21275;DHT22;36472;52.170;20.884;2022-08-19T14:13:19;41.20;42.20
21275;DHT22;36472;52.170;20.884;2022-08-19T14:15:50;41.30;42.00
21275;DHT22;36472;52.170;20.884;2022-08-19T14:18:21;41.50;42.20
21275;DHT22;36472;52.170;20.884;2022-08-19T14:20:54;41.60;41.30
21275;DHT22;36472;52.170;20.884;2022-08-19T14:23:25;41.60;41.10
21275;DHT22;36472;52.170;20.884;2022-08-19T14:25:53;41.60;41.20
21275;DHT22;36472;52.170;20.884;2022-08-19T14:28:31;41.60;41.20
21275;DHT22;36472;52.170;20.884;2022-08-19T14:31:00;41.40;40.90
21275;DHT22;36472;52.170;20.884;2022-08-19T14:33:30;41.20;40.80
21275;DHT22;36472;52.170;20.884;2022-08-19T14:35:59;41.10;41.60
21275;DHT22;36472;52.170;20.884;2022-08-19T14:38:28;40.90;42.50
21275;DHT22;36472;52.170;20.884;2022-08-19T14:41:10;40.80;42.20
21275;DHT22;36472;52.170;20.884;2022-08-19T14:43:41;40.70;41.90
21275;DHT22;36472;52.170;20.884;2022-08-19T14:46:09;40.60;42.40
21275;DHT22;36472;52.170;20.884;2022-08-19T14:48:44;40.60;42.20
21275;DHT22;36472;52.170;20.884;2022-08-19T14:51:18;40.60;42.00
21275;DHT22;36472;52.170;20.884;2022-08-19T14:53:47;40.50;42.10
21275;DHT22;36472;52.170;20.884;2022-08-19T14:56:21;40.40;43.30
21275;DHT22;36472;52.170;20.884;2022-08-19T14:58:52;40.50;42.20
21275;DHT22;36472;52.170;20.884;2022-08-19T15:01:22;40.50;42.50
21275;DHT22;36472;52.170;20.884;2022-08-19T15:03:52;40.40;42.60
21275;DHT22;36472;52.170;20.884;2022-08-19T15:06:22;40.40;42.80
21275;DHT22;36472;52.170;20.884;2022-08-19T15:08:52;40.40;42.60
21275;DHT22;36472;52.170;20.884;2022-08-19T15:11:23;40.30;42.70
21275;DHT22;36472;52.170;20.884;2022-08-19T15:13:55;40.40;42.60
21275;DHT22;36472;52.170;20.884;2022-08-19T15:16:25;40.40;42.10
21275;DHT22;36472;52.170;20.884;2022-08-19T15:18:58;40.40;42.50
21275;DHT22;36472;52.170;20.884;2022-08-19T15:21:28;40.40;42.20
21275;DHT22;36472;52.170;20.884;2022-08-19T15:23:59;40.40;42.20
21275;DHT22;36472;52.170;20.884;2022-08-19T15:26:29;40.30;41.90
21275;DHT22;36472;52.170;20.884;2022-08-19T15:28:59;40.30;41.90
21275;DHT22;36472;52.170;20.884;2022-08-19T15:31:29;40.30;42.00
21275;DHT22;36472;52.170;20.884;2022-08-19T15:34:03;40.30;42.00
21275;DHT22;36472;52.170;20.884;2022-08-19T15:36:33;40.30;41.40
21275;DHT22;36472;52.170;20.884;2022-08-19T15:39:03;40.40;42.10
21275;DHT22;36472;52.170;20.884;2022-08-19T15:41:33;40.40;41.20
21275;DHT22;36472;52.170;20.884;2022-08-19T15:44:06;40.40;41.30
21275;DHT22;36472;52.170;20.884;2022-08-19T15:46:39;40.50;41.20
21275;DHT22;36472;52.170;20.884;2022-08-19T15:49:12;40.50;41.50